Terminal Aerodrome Forecast
Issued by NWS

Home | Current Version | Previous Version | Text Only | Print | Product List | Glossary On
Versions: 1 2 3 4 5 6 7 8 9 10 11 12
000
FTAK31 PAJN 262300
TAFAYA
TAF
PAYA 262338Z 2700/2724 00000KT P6SM VCSH FEW050
     FM270500 08008KT P6SM FEW050
     FM271200 06010G20KT P6SM FEW050
     FM271800 06008KT P6SM SCT010
      AMD LTD TO CLD VIS AND WIND 2701/2710=

USA.gov is the U.S. government's official web portal to all federal, state and local government web resources and services.